createdAt,value
2023-05-06T00:02:04.617Z,98325.28
2023-05-06T00:04:10.042Z,98332.66
2023-05-06T00:06:15.032Z,98331.97
2023-05-06T00:08:20.141Z,98336.78
2023-05-06T00:10:25.014Z,98332.31
2023-05-06T00:12:32.458Z,98330.91
2023-05-06T00:14:37.366Z,98326.31
2023-05-06T00:16:45.312Z,98323.22
2023-05-06T00:18:50.283Z,98322.28
2023-05-06T00:20:55.271Z,98325.66
2023-05-06T00:23:00.219Z,98330.09
2023-05-06T00:25:06.473Z,98329.91
2023-05-06T00:27:11.570Z,98327.84
2023-05-06T00:29:18.869Z,98327.34
2023-05-06T00:31:23.790Z,98325.47
2023-05-06T00:33:29.834Z,98327.44
2023-05-06T00:35:34.754Z,98330.78
2023-05-06T00:37:39.814Z,98329.50
2023-05-06T00:39:44.694Z,98324.53
2023-05-06T00:41:49.594Z,98318.00
2023-05-06T00:43:54.489Z,98311.41
2023-05-06T00:46:02.039Z,98317.97
2023-05-06T00:48:09.679Z,98325.00
2023-05-06T00:50:14.874Z,98323.88
2023-05-06T00:52:20.554Z,98319.38
2023-05-06T00:54:27.281Z,98323.88
2023-05-06T00:56:32.304Z,98318.81
2023-05-06T00:58:38.044Z,98313.94
2023-05-06T01:00:43.427Z,98313.75
2023-05-06T01:02:52.422Z,98322.97
2023-05-06T01:04:58.770Z,98322.84
2023-05-06T01:07:11.345Z,98330.91
2023-05-06T01:09:23.778Z,98328.28
2023-05-06T01:11:38.488Z,98322.63
2023-05-06T01:13:50.239Z,98326.22
2023-05-06T01:15:57.983Z,98320.84
2023-05-06T01:18:11.845Z,98331.28
2023-05-06T01:20:17.797Z,98333.81
2023-05-06T01:22:23.123Z,98331.34
2023-05-06T01:24:40.585Z,98329.09
2023-05-06T01:26:45.580Z,98329.28
2023-05-06T01:28:50.504Z,98330.69
2023-05-06T01:31:03.939Z,98332.00
2023-05-06T01:33:14.501Z,98328.75
2023-05-06T01:35:27.431Z,98322.38
2023-05-06T01:37:41.616Z,98320.50
2023-05-06T01:39:49.765Z,98318.06
2023-05-06T01:41:57.536Z,98318.41
2023-05-06T01:44:04.204Z,98316.19
2023-05-06T01:46:14.305Z,98317.69
2023-05-06T01:48:20.066Z,98329.28
2023-05-06T01:50:26.442Z,98327.34
2023-05-06T01:52:31.844Z,98323.84
2023-05-06T01:54:36.771Z,98329.78
2023-05-06T01:56:44.286Z,98326.47
2023-05-06T01:58:49.241Z,98328.38
2023-05-06T02:00:54.126Z,98319.56
2023-05-06T02:02:59.016Z,98321.91
2023-05-06T02:05:04.280Z,98317.97
2023-05-06T02:07:08.911Z,98318.63
2023-05-06T02:09:13.892Z,98310.47
2023-05-06T02:11:23.329Z,98313.28
2023-05-06T02:13:33.420Z,98310.56
2023-05-06T02:15:38.459Z,98296.59
2023-05-06T02:17:45.370Z,98307.72
2023-05-06T02:19:50.234Z,98296.69
2023-05-06T02:21:56.133Z,98304.38
2023-05-06T02:24:01.882Z,98302.03
2023-05-06T02:26:06.665Z,98311.31
2023-05-06T02:28:11.516Z,98320.31
2023-05-06T02:30:19.106Z,98318.25
2023-05-06T02:32:24.050Z,98316.91
2023-05-06T02:34:28.997Z,98324.13
2023-05-06T02:36:34.038Z,98317.22
2023-05-06T02:38:38.954Z,98320.09
2023-05-06T02:40:43.966Z,98324.59
2023-05-06T02:42:48.977Z,98326.47
2023-05-06T02:44:53.943Z,98320.94
2023-05-06T02:47:01.522Z,98315.31
2023-05-06T02:49:06.488Z,98314.03
2023-05-06T02:51:11.403Z,98315.91
2023-05-06T02:53:16.240Z,98313.00
2023-05-06T02:55:21.703Z,98312.44
2023-05-06T02:57:26.667Z,98310.00
2023-05-06T02:59:31.572Z,98312.34
2023-05-06T03:01:36.600Z,98317.13
2023-05-06T03:03:44.764Z,98313.19
2023-05-06T03:05:49.738Z,98303.19
2023-05-06T03:07:55.448Z,98310.19
2023-05-06T03:10:00.467Z,98305.72
2023-05-06T03:12:08.748Z,98311.69
2023-05-06T03:14:13.735Z,98310.19
2023-05-06T03:16:19.198Z,98314.22
2023-05-06T03:18:28.063Z,98314.72
2023-05-06T03:20:35.616Z,98307.47
2023-05-06T03:22:42.529Z,98303.81
2023-05-06T03:24:48.060Z,98305.88
2023-05-06T03:26:53.217Z,98311.69
2023-05-06T03:28:58.152Z,98302.13
2023-05-06T03:31:03.785Z,98317.59
2023-05-06T03:33:11.037Z,98308.03
2023-05-06T03:35:16.023Z,98307.84
2023-05-06T03:37:26.890Z,98306.50
2023-05-06T03:39:34.822Z,98304.63
2023-05-06T03:41:40.411Z,98303.69
2023-05-06T03:43:46.144Z,98302.97
2023-05-06T03:45:52.784Z,98300.97
2023-05-06T03:47:58.680Z,98291.09
2023-05-06T03:50:04.883Z,98286.63
2023-05-06T03:52:11.964Z,98289.31
2023-05-06T03:54:20.105Z,98286.25
2023-05-06T03:56:25.194Z,98288.75
2023-05-06T03:58:32.260Z,98298.22
2023-05-06T04:00:40.944Z,98300.66
2023-05-06T04:02:45.944Z,98299.81
2023-05-06T04:04:58.961Z,98297.41
2023-05-06T04:07:04.044Z,98294.22
2023-05-06T04:09:09.776Z,98289.16
2023-05-06T04:11:19.831Z,98294.59
2023-05-06T04:13:26.417Z,98295.56
2023-05-06T04:15:34.584Z,98290.31
2023-05-06T04:17:41.619Z,98284.22
2023-05-06T04:19:47.814Z,98286.09
2023-05-06T04:21:52.780Z,98287.13
2023-05-06T04:23:58.323Z,98285.72
2023-05-06T04:26:10.594Z,98292.31
2023-05-06T04:28:22.009Z,98297.53
2023-05-06T04:30:29.131Z,98307.75
2023-05-06T04:32:34.410Z,98314.38
2023-05-06T04:34:40.701Z,98318.41
2023-05-06T04:36:49.700Z,98320.50
2023-05-06T04:39:23.471Z,98332.56
2023-05-06T04:41:31.321Z,98325.78
2023-05-06T04:43:40.131Z,98334.88
2023-05-06T04:45:53.136Z,98336.38
2023-05-06T04:48:03.224Z,98338.66
2023-05-06T04:50:10.318Z,98334.72
2023-05-06T04:52:15.239Z,98336.03
2023-05-06T04:54:20.143Z,98340.72
2023-05-06T04:56:25.084Z,98325.75
2023-05-06T04:58:30.040Z,98334.53
2023-05-06T05:00:38.759Z,98339.41
2023-05-06T05:02:43.895Z,98339.13
2023-05-06T05:04:49.583Z,98351.03
2023-05-06T05:06:54.543Z,98346.97
2023-05-06T05:08:59.845Z,98348.41
2023-05-06T05:11:06.236Z,98355.13
2023-05-06T05:13:11.676Z,98354.66
2023-05-06T05:15:17.269Z,98357.41
2023-05-06T05:17:25.108Z,98352.22
2023-05-06T05:19:30.750Z,98363.19
2023-05-06T05:21:36.260Z,98359.72
2023-05-06T05:23:41.882Z,98352.59
2023-05-06T05:25:47.440Z,98364.91
2023-05-06T05:27:52.568Z,98368.34
2023-05-06T05:29:57.431Z,98369.56
2023-05-06T05:32:02.342Z,98370.50
2023-05-06T05:34:10.043Z,98371.53
2023-05-06T05:36:15.612Z,98365.16
2023-05-06T05:38:23.065Z,98365.81
2023-05-06T05:40:29.058Z,98363.94
2023-05-06T05:42:35.442Z,98367.91
2023-05-06T05:44:49.215Z,98365.56
2023-05-06T05:46:54.488Z,98364.78
2023-05-06T05:48:59.629Z,98371.06
2023-05-06T05:51:07.336Z,98361.75
2023-05-06T05:53:12.334Z,98358.47
2023-05-06T05:55:17.206Z,98349.28
2023-05-06T05:57:24.598Z,98348.72
2023-05-06T05:59:31.787Z,98353.50
2023-05-06T06:01:41.187Z,98354.72
2023-05-06T06:03:47.431Z,98356.69
2023-05-06T06:05:53.164Z,98352.16
2023-05-06T06:08:03.497Z,98351.34
2023-05-06T06:10:10.730Z,98350.50
2023-05-06T06:12:16.064Z,98356.88
2023-05-06T06:14:21.100Z,98356.94
2023-05-06T06:16:27.350Z,98366.84
2023-05-06T06:18:32.285Z,98366.19
2023-05-06T06:20:37.186Z,98367.13
2023-05-06T06:22:42.500Z,98366.75
2023-05-06T06:24:54.370Z,98360.38
2023-05-06T06:26:59.215Z,98375.09
2023-05-06T06:29:05.026Z,98369.88
2023-05-06T06:31:10.628Z,98372.22
2023-05-06T06:33:15.611Z,98370.63
2023-05-06T06:35:20.734Z,98360.97
2023-05-06T06:37:25.466Z,98362.56
2023-05-06T06:39:30.397Z,98363.31
2023-05-06T06:41:37.852Z,98365.47
2023-05-06T06:43:43.369Z,98358.31
2023-05-06T06:46:01.646Z,98355.56
2023-05-06T06:48:06.509Z,98351.72
2023-05-06T06:50:12.624Z,98352.94
2023-05-06T06:52:17.578Z,98350.09
2023-05-06T06:54:22.549Z,98349.88
2023-05-06T06:56:27.504Z,98348.66
2023-05-06T06:58:36.164Z,98354.34
2023-05-06T07:00:41.144Z,98354.91
2023-05-06T07:02:48.333Z,98355.16
2023-05-06T07:04:56.289Z,98359.56
2023-05-06T07:07:01.222Z,98359.88
2023-05-06T07:09:06.249Z,98359.31
2023-05-06T07:11:11.205Z,98357.28
2023-05-06T07:13:20.878Z,98347.47
2023-05-06T07:15:28.707Z,98351.34
2023-05-06T07:17:33.665Z,98352.00
2023-05-06T07:19:38.678Z,98348.78
2023-05-06T07:21:43.689Z,98344.94
2023-05-06T07:23:48.570Z,98347.38
2023-05-06T07:25:53.417Z,98349.31
2023-05-06T07:27:58.303Z,98350.44
2023-05-06T07:30:03.536Z,98347.16
2023-05-06T07:32:11.287Z,98344.00
2023-05-06T07:34:16.267Z,98348.06
2023-05-06T07:36:21.234Z,98358.47
2023-05-06T07:38:26.350Z,98352.38
2023-05-06T07:40:31.209Z,98360.47
2023-05-06T07:42:36.295Z,98343.59
2023-05-06T07:44:40.848Z,98347.19
2023-05-06T07:46:45.846Z,98348.44
2023-05-06T07:48:53.250Z,98353.06
2023-05-06T07:50:58.241Z,98350.44
2023-05-06T07:53:04.203Z,98344.97
2023-05-06T07:55:11.971Z,98346.66
2023-05-06T07:57:17.136Z,98353.72
2023-05-06T07:59:22.179Z,98348.78
2023-05-06T08:01:27.019Z,98345.38
2023-05-06T08:03:32.088Z,98341.03
2023-05-06T08:05:39.873Z,98335.56
2023-05-06T08:07:45.056Z,98337.25
2023-05-06T08:09:52.913Z,98338.03
2023-05-06T08:11:58.554Z,98334.22
2023-05-06T08:14:03.465Z,98338.06
2023-05-06T08:16:09.665Z,98346.50
2023-05-06T08:18:22.417Z,98344.94
2023-05-06T08:20:28.219Z,98343.09
2023-05-06T08:22:35.552Z,98329.16
2023-05-06T08:24:40.464Z,98328.31
2023-05-06T08:26:45.476Z,98335.22
2023-05-06T08:28:50.532Z,98335.03
2023-05-06T08:30:55.600Z,98332.97
2023-05-06T08:33:00.670Z,98331.06
2023-05-06T08:35:05.330Z,98333.06
2023-05-06T08:37:10.214Z,98339.19
2023-05-06T08:39:18.425Z,98337.13
2023-05-06T08:41:25.010Z,98334.47
2023-05-06T08:43:32.109Z,98335.06
2023-05-06T08:45:37.219Z,98339.50
2023-05-06T08:47:42.028Z,98344.00
2023-05-06T08:49:47.136Z,98340.34
2023-05-06T08:51:54.145Z,98336.28
2023-05-06T08:54:03.810Z,98338.63
2023-05-06T08:56:12.561Z,98332.88
2023-05-06T08:58:20.171Z,98334.06
2023-05-06T09:00:27.410Z,98331.09
2023-05-06T09:02:32.984Z,98328.59
2023-05-06T09:04:38.956Z,98328.59
2023-05-06T09:06:43.842Z,98322.59
2023-05-06T09:08:48.742Z,98328.94
2023-05-06T09:10:53.772Z,98326.22
2023-05-06T09:13:01.142Z,98317.22
2023-05-06T09:15:06.284Z,98319.38
2023-05-06T09:17:24.272Z,98319.22
2023-05-06T09:19:29.611Z,98325.72
2023-05-06T09:21:40.775Z,98319.41
2023-05-06T09:23:45.938Z,98317.91
2023-05-06T09:25:51.393Z,98312.91
2023-05-06T09:28:06.764Z,98313.22
2023-05-06T09:30:14.666Z,98309.50
2023-05-06T09:32:23.165Z,98313.22
2023-05-06T09:34:28.181Z,98316.47
2023-05-06T09:36:33.432Z,98312.38
2023-05-06T09:38:38.109Z,98310.84
2023-05-06T09:40:43.196Z,98314.13
2023-05-06T09:42:50.676Z,98311.22
2023-05-06T09:45:03.126Z,98309.28
2023-05-06T09:47:08.625Z,98319.16
2023-05-06T09:49:15.288Z,98314.41
2023-05-06T09:51:20.233Z,98311.78
2023-05-06T09:53:25.667Z,98303.84
2023-05-06T09:55:31.391Z,98308.00
2023-05-06T09:57:37.246Z,98293.84
2023-05-06T09:59:43.564Z,98300.00
2023-05-06T10:01:51.915Z,98301.22
2023-05-06T10:03:57.731Z,98308.16
2023-05-06T10:06:04.200Z,98303.59
2023-05-06T10:08:10.420Z,98302.25
2023-05-06T10:10:15.663Z,98302.53
2023-05-06T10:12:21.914Z,98303.28
2023-05-06T10:14:28.394Z,98301.00
2023-05-06T10:16:34.233Z,98297.31
2023-05-06T10:18:43.384Z,98294.78
2023-05-06T10:20:49.690Z,98299.69
2023-05-06T10:23:04.134Z,98288.75
2023-05-06T10:25:20.515Z,98286.34
2023-05-06T10:27:27.502Z,98281.59
2023-05-06T10:29:32.549Z,98290.38
2023-05-06T10:31:37.375Z,98279.31
2023-05-06T10:33:48.042Z,98281.56
2023-05-06T10:36:00.162Z,98271.38
2023-05-06T10:38:10.954Z,98271.13
2023-05-06T10:40:16.615Z,98270.03
2023-05-06T10:42:21.529Z,98265.25
2023-05-06T10:44:56.273Z,98266.28
2023-05-06T10:47:02.496Z,98267.13
2023-05-06T10:49:22.675Z,98259.38
2023-05-06T10:51:34.204Z,98258.16
2023-05-06T10:54:03.313Z,98261.38
2023-05-06T10:56:11.892Z,98257.69
2023-05-06T10:58:18.305Z,98250.75
2023-05-06T11:00:23.284Z,98259.31
2023-05-06T11:02:28.120Z,98246.25
2023-05-06T11:04:37.754Z,98257.44
2023-05-06T11:06:44.880Z,98255.72
2023-05-06T11:09:01.032Z,98254.06
2023-05-06T11:11:41.543Z,98258.44
2023-05-06T11:13:46.550Z,98247.28
2023-05-06T11:15:53.116Z,98254.66
2023-05-06T11:17:59.010Z,98250.19
2023-05-06T11:20:25.933Z,98257.09
2023-05-06T11:22:41.977Z,98255.13
2023-05-06T11:24:47.157Z,98257.22
2023-05-06T11:26:53.502Z,98254.34
2023-05-06T11:28:58.502Z,98251.91
2023-05-06T11:31:03.714Z,98259.59
2023-05-06T11:33:10.702Z,98264.19
2023-05-06T11:35:18.742Z,98250.09
2023-05-06T11:37:31.362Z,98261.53
2023-05-06T11:39:40.884Z,98261.03
2023-05-06T11:41:46.123Z,98263.63
2023-05-06T11:43:51.422Z,98255.94
2023-05-06T11:45:56.361Z,98264.19
2023-05-06T11:48:01.270Z,98261.69
2023-05-06T11:50:08.163Z,98263.50
2023-05-06T11:52:14.508Z,98259.59
2023-05-06T11:54:24.984Z,98264.56
2023-05-06T11:56:30.075Z,98266.94
2023-05-06T11:58:35.497Z,98260.50
2023-05-06T12:00:40.527Z,98253.06
2023-05-06T12:02:45.542Z,98256.94
2023-05-06T12:04:53.424Z,98259.69
2023-05-06T12:06:59.720Z,98248.56
2023-05-06T12:09:05.932Z,98253.44
2023-05-06T12:11:14.233Z,98251.94
2023-05-06T12:13:19.332Z,98246.94
2023-05-06T12:15:24.365Z,98250.00
2023-05-06T12:17:29.516Z,98250.78
2023-05-06T12:19:35.385Z,98255.47
2023-05-06T12:21:41.389Z,98237.50
2023-05-06T12:23:53.882Z,98241.81
2023-05-06T12:26:06.912Z,98241.06
2023-05-06T12:28:26.976Z,98242.78
2023-05-06T12:30:32.712Z,98239.31
2023-05-06T12:32:37.737Z,98239.72
2023-05-06T12:34:45.443Z,98238.31
2023-05-06T12:36:51.392Z,98241.09
2023-05-06T12:38:58.238Z,98241.38
2023-05-06T12:41:04.806Z,98235.88
2023-05-06T12:43:10.636Z,98239.06
2023-05-06T12:45:22.030Z,98235.06
2023-05-06T12:47:28.858Z,98239.91
2023-05-06T12:49:53.566Z,98235.88
2023-05-06T12:52:14.096Z,98230.59
2023-05-06T12:54:35.022Z,98232.97
2023-05-06T12:56:41.169Z,98230.47
2023-05-06T12:58:46.260Z,98226.91
2023-05-06T13:00:53.815Z,98221.38
2023-05-06T13:02:59.052Z,98222.66
2023-05-06T13:05:04.067Z,98223.38
2023-05-06T13:07:09.485Z,98219.63
2023-05-06T13:09:15.978Z,98218.09
2023-05-06T13:11:22.463Z,98216.63
2023-05-06T13:13:27.542Z,98226.28
2023-05-06T13:15:32.253Z,98217.97
2023-05-06T13:17:42.474Z,98216.06
2023-05-06T13:19:47.806Z,98208.34
2023-05-06T13:21:52.735Z,98206.38
2023-05-06T13:23:57.681Z,98218.66
2023-05-06T13:26:05.530Z,98217.00
2023-05-06T13:28:10.870Z,98218.50
2023-05-06T13:30:15.962Z,98219.06
2023-05-06T13:32:21.064Z,98213.38
2023-05-06T13:34:28.643Z,98208.34
2023-05-06T13:36:33.689Z,98216.63
2023-05-06T13:38:38.721Z,98209.34
2023-05-06T13:40:43.598Z,98218.56
2023-05-06T13:42:48.502Z,98218.63
2023-05-06T13:44:53.348Z,98217.72
2023-05-06T13:46:58.447Z,98218.16
2023-05-06T13:49:03.271Z,98214.50
2023-05-06T13:51:11.052Z,98213.19
2023-05-06T13:53:16.493Z,98209.13
2023-05-06T13:55:21.715Z,98208.66
2023-05-06T13:57:26.929Z,98207.28
2023-05-06T13:59:31.923Z,98201.19
2023-05-06T14:01:37.289Z,98197.19
2023-05-06T14:03:42.697Z,98196.09
2023-05-06T14:05:47.980Z,98193.72
2023-05-06T14:07:55.654Z,98186.47
2023-05-06T14:10:01.092Z,98191.78
2023-05-06T14:12:06.695Z,98177.09
2023-05-06T14:14:11.748Z,98181.66
2023-05-06T14:16:16.776Z,98180.50
2023-05-06T14:18:21.790Z,98172.44
2023-05-06T14:20:26.570Z,98175.16
2023-05-06T14:22:31.591Z,98173.00
2023-05-06T14:24:38.818Z,98172.75
2023-05-06T14:26:46.229Z,98168.34
2023-05-06T14:28:51.209Z,98172.63
2023-05-06T14:30:56.678Z,98165.19
2023-05-06T14:33:01.618Z,98171.75
2023-05-06T14:35:06.460Z,98174.69
2023-05-06T14:37:11.544Z,98164.13
2023-05-06T14:39:16.212Z,98160.50
2023-05-06T14:41:23.796Z,98164.97
2023-05-06T14:43:28.826Z,98162.63
2023-05-06T14:45:33.509Z,98164.66
2023-05-06T14:47:38.926Z,98164.44
2023-05-06T14:49:43.862Z,98163.59
2023-05-06T14:51:50.659Z,98168.28
2023-05-06T14:53:55.557Z,98159.41
2023-05-06T14:56:00.222Z,98157.56
2023-05-06T14:58:07.727Z,98157.41
2023-05-06T15:00:15.043Z,98153.63
2023-05-06T15:02:20.036Z,98155.53
2023-05-06T15:04:24.637Z,98154.66
2023-05-06T15:06:29.500Z,98154.41
2023-05-06T15:08:34.202Z,98155.44
2023-05-06T15:10:42.029Z,98151.59
2023-05-06T15:12:46.926Z,98149.44
2023-05-06T15:14:54.243Z,98148.78
2023-05-06T15:17:00.141Z,98150.66
2023-05-06T15:19:05.261Z,98145.75
2023-05-06T15:21:09.964Z,98143.63
2023-05-06T15:23:14.894Z,98153.34
2023-05-06T15:25:34.424Z,98142.88
2023-05-06T15:27:41.131Z,98144.97
2023-05-06T15:29:46.050Z,98145.75
2023-05-06T15:31:53.584Z,98138.13
2023-05-06T15:34:00.511Z,98137.72
2023-05-06T15:36:06.361Z,98137.41
2023-05-06T15:38:11.217Z,98141.69
2023-05-06T15:40:16.285Z,98134.75
2023-05-06T15:42:21.684Z,98143.34
2023-05-06T15:44:26.950Z,98144.66
2023-05-06T15:46:33.589Z,98145.38
2023-05-06T15:48:41.852Z,98139.19
2023-05-06T15:50:47.362Z,98136.88
2023-05-06T15:52:52.417Z,98140.44
2023-05-06T15:54:59.437Z,98140.13
2023-05-06T15:57:06.688Z,98139.03
2023-05-06T15:59:12.446Z,98136.09
2023-05-06T16:01:22.110Z,98137.09
2023-05-06T16:03:34.873Z,98132.13
2023-05-06T16:05:44.520Z,98135.19
2023-05-06T16:07:49.867Z,98139.44
2023-05-06T16:09:54.788Z,98133.72
2023-05-06T16:12:00.266Z,98134.84
2023-05-06T16:14:05.565Z,98133.03
2023-05-06T16:16:10.904Z,98134.97
2023-05-06T16:18:15.906Z,98137.31
2023-05-06T16:20:20.772Z,98142.06
2023-05-06T16:22:27.988Z,98138.56
2023-05-06T16:24:33.076Z,98140.63
2023-05-06T16:26:37.943Z,98144.53
2023-05-06T16:28:43.165Z,98142.41
2023-05-06T16:30:47.942Z,98143.00
2023-05-06T16:32:53.062Z,98139.22
2023-05-06T16:34:59.560Z,98141.63
2023-05-06T16:37:05.594Z,98144.72
2023-05-06T16:39:13.148Z,98150.38
2023-05-06T16:41:18.055Z,98152.00
2023-05-06T16:43:24.197Z,98142.38
2023-05-06T16:45:28.881Z,98146.47
2023-05-06T16:47:33.959Z,98135.25
2023-05-06T16:49:39.130Z,98142.56
2023-05-06T16:51:43.721Z,98142.31
2023-05-06T16:53:48.741Z,98135.19
2023-05-06T16:55:56.211Z,98142.91
2023-05-06T16:58:02.298Z,98143.47
2023-05-06T17:00:12.249Z,98136.22
2023-05-06T17:02:17.653Z,98141.09
2023-05-06T17:04:22.557Z,98138.91
2023-05-06T17:06:31.385Z,98140.44
2023-05-06T17:08:37.179Z,98135.16
2023-05-06T17:10:43.693Z,98140.28
2023-05-06T17:12:51.642Z,98139.91
2023-05-06T17:14:56.646Z,98141.56
2023-05-06T17:17:04.194Z,98137.94
2023-05-06T17:19:09.225Z,98132.34
2023-05-06T17:21:13.831Z,98126.91
2023-05-06T17:23:18.676Z,98135.84
2023-05-06T17:25:23.670Z,98123.41
2023-05-06T17:27:28.541Z,98126.63
2023-05-06T17:29:36.039Z,98126.31
2023-05-06T17:31:40.906Z,98130.50
2023-05-06T17:33:45.845Z,98122.16
2023-05-06T17:35:50.814Z,98131.63
2023-05-06T17:37:56.246Z,98128.00
2023-05-06T17:40:01.205Z,98122.84
2023-05-06T17:42:06.197Z,98133.44
2023-05-06T17:44:10.937Z,98131.31
2023-05-06T17:46:19.698Z,98134.09
2023-05-06T17:48:24.696Z,98129.81
2023-05-06T17:50:29.798Z,98131.03
2023-05-06T17:52:34.467Z,98124.75
2023-05-06T17:54:41.237Z,98134.50
2023-05-06T17:56:50.592Z,98131.13
2023-05-06T17:58:56.685Z,98122.38
2023-05-06T18:01:01.674Z,98133.22
2023-05-06T18:03:09.314Z,98138.75
2023-05-06T18:05:14.346Z,98138.88
2023-05-06T18:07:19.413Z,98141.66
2023-05-06T18:09:24.523Z,98140.25
2023-05-06T18:11:29.155Z,98137.41
2023-05-06T18:13:37.928Z,98132.41
2023-05-06T18:15:43.150Z,98140.59
2023-05-06T18:17:48.333Z,98136.81
2023-05-06T18:19:55.720Z,98134.38
2023-05-06T18:22:00.731Z,98136.59
2023-05-06T18:24:15.852Z,98138.53
2023-05-06T18:26:39.849Z,98137.97
2023-05-06T18:28:46.906Z,98146.84
2023-05-06T18:30:54.477Z,98144.03
2023-05-06T18:32:59.763Z,98148.34
2023-05-06T18:35:07.965Z,98150.03
2023-05-06T18:37:13.037Z,98147.63
2023-05-06T18:39:18.079Z,98151.38
2023-05-06T18:41:23.357Z,98158.63
2023-05-06T18:43:29.165Z,98153.72
2023-05-06T18:45:34.087Z,98154.94
2023-05-06T18:47:40.381Z,98148.88
2023-05-06T18:49:45.069Z,98163.81
2023-05-06T18:51:54.281Z,98166.84
2023-05-06T18:53:59.270Z,98163.00
2023-05-06T18:56:04.401Z,98159.78
2023-05-06T18:58:09.470Z,98164.16
2023-05-06T19:00:16.709Z,98169.69
2023-05-06T19:02:21.714Z,98173.31
2023-05-06T19:04:26.562Z,98169.59
2023-05-06T19:06:32.634Z,98171.28
2023-05-06T19:08:40.944Z,98170.34
2023-05-06T19:10:45.844Z,98163.81
2023-05-06T19:12:51.048Z,98161.06
2023-05-06T19:14:56.602Z,98163.47
2023-05-06T19:17:01.682Z,98163.47
2023-05-06T19:19:07.509Z,98166.09
2023-05-06T19:21:12.534Z,98167.03
2023-05-06T19:23:17.178Z,98164.53
2023-05-06T19:25:24.672Z,98169.44
2023-05-06T19:27:29.577Z,98165.84
2023-05-06T19:29:34.465Z,98172.94
2023-05-06T19:31:40.489Z,98165.84
2023-05-06T19:33:46.000Z,98169.00
2023-05-06T19:35:50.897Z,98175.59
2023-05-06T19:37:56.257Z,98171.13
2023-05-06T19:40:01.168Z,98175.94
2023-05-06T19:42:08.832Z,98175.47
2023-05-06T19:44:13.786Z,98177.41
2023-05-06T19:46:19.057Z,98175.41
2023-05-06T19:48:24.248Z,98169.63
2023-05-06T19:50:29.468Z,98169.88
2023-05-06T19:52:34.852Z,98187.03
2023-05-06T19:54:42.103Z,98183.31
2023-05-06T19:56:46.969Z,98184.75
2023-05-06T19:58:54.693Z,98179.44
2023-05-06T20:00:59.538Z,98171.66
2023-05-06T20:03:04.508Z,98178.63
2023-05-06T20:05:09.745Z,98179.13
2023-05-06T20:07:16.549Z,98179.13
2023-05-06T20:09:21.553Z,98175.41
2023-05-06T20:11:26.269Z,98173.94
2023-05-06T20:13:31.306Z,98174.09
2023-05-06T20:15:38.677Z,98174.59
2023-05-06T20:17:43.626Z,98177.22
2023-05-06T20:19:48.897Z,98170.38
2023-05-06T20:21:54.224Z,98174.44
2023-05-06T20:23:59.229Z,98174.25
2023-05-06T20:26:04.091Z,98179.38
2023-05-06T20:28:10.063Z,98177.72
2023-05-06T20:30:15.704Z,98176.63
2023-05-06T20:32:23.369Z,98180.22
2023-05-06T20:34:28.616Z,98183.00
2023-05-06T20:36:35.191Z,98182.28
2023-05-06T20:38:40.083Z,98180.59
2023-05-06T20:40:44.989Z,98182.66
2023-05-06T20:42:50.169Z,98182.16
2023-05-06T20:44:54.874Z,98183.59
2023-05-06T20:46:59.804Z,98188.19
2023-05-06T20:49:07.293Z,98182.91
2023-05-06T20:51:12.167Z,98187.69
2023-05-06T20:53:17.043Z,98185.16
2023-05-06T20:55:23.601Z,98188.06
2023-05-06T20:57:28.753Z,98190.94
2023-05-06T20:59:33.358Z,98189.84
2023-05-06T21:01:40.817Z,98191.16
2023-05-06T21:03:46.465Z,98188.91
2023-05-06T21:05:55.047Z,98195.50
2023-05-06T21:08:00.164Z,98192.84
2023-05-06T21:10:06.155Z,98194.44
2023-05-06T21:12:11.108Z,98204.63
2023-05-06T21:14:16.095Z,98206.16
2023-05-06T21:16:21.024Z,98198.00
2023-05-06T21:18:26.263Z,98195.81
2023-05-06T21:20:31.292Z,98199.28
2023-05-06T21:22:38.769Z,98202.91
2023-05-06T21:24:43.631Z,98202.16
2023-05-06T21:26:48.749Z,98203.13
2023-05-06T21:28:53.916Z,98208.03
2023-05-06T21:30:58.911Z,98202.47
2023-05-06T21:33:03.945Z,98202.09
2023-05-06T21:35:10.065Z,98201.38
2023-05-06T21:37:15.222Z,98204.00
2023-05-06T21:39:24.942Z,98203.03
2023-05-06T21:41:29.898Z,98203.16
2023-05-06T21:43:34.908Z,98194.44
2023-05-06T21:45:42.090Z,98199.69
2023-05-06T21:47:47.386Z,98206.88
2023-05-06T21:49:52.277Z,98207.81
2023-05-06T21:51:57.156Z,98202.66
2023-05-06T21:54:02.156Z,98195.94
2023-05-06T21:56:09.774Z,98205.75
2023-05-06T21:58:14.844Z,98207.13
2023-05-06T22:00:23.101Z,98208.66
2023-05-06T22:02:28.684Z,98212.69
2023-05-06T22:04:33.626Z,98201.97
2023-05-06T22:06:39.090Z,98203.13
2023-05-06T22:08:44.838Z,98209.34
2023-05-06T22:10:49.786Z,98201.75
2023-05-06T22:12:57.360Z,98203.69
2023-05-06T22:15:02.830Z,98207.47
2023-05-06T22:17:09.040Z,98215.59
2023-05-06T22:19:14.350Z,98216.53
2023-05-06T22:21:27.160Z,98219.19
2023-05-06T22:23:34.212Z,98223.59
2023-05-06T22:25:41.969Z,98221.06
2023-05-06T22:27:47.401Z,98217.81
2023-05-06T22:29:55.874Z,98220.97
2023-05-06T22:32:04.283Z,98218.34
2023-05-06T22:34:09.709Z,98216.28
2023-05-06T22:38:52.949Z,98221.31
2023-05-06T22:41:00.238Z,98217.22
2023-05-06T22:43:13.286Z,98217.22
2023-05-06T22:45:21.005Z,98215.34
2023-05-06T22:47:26.333Z,98211.13
2023-05-06T22:49:31.304Z,98221.13
2023-05-06T22:51:36.410Z,98214.41
2023-05-06T22:53:41.186Z,98217.44
2023-05-06T22:55:46.127Z,98214.81
2023-05-06T22:57:54.074Z,98221.53
2023-05-06T23:08:28.488Z,98214.16
2023-05-06T23:10:35.880Z,98214.91
2023-05-06T23:12:41.456Z,98217.44
2023-05-06T23:14:46.683Z,98210.47
2023-05-06T23:16:51.592Z,98210.69
2023-05-06T23:18:56.773Z,98203.66
2023-05-06T23:21:04.440Z,98206.59
2023-05-06T23:23:10.903Z,98210.06
2023-05-06T23:25:22.109Z,98215.25
2023-05-06T23:27:27.548Z,98210.91
2023-05-06T23:29:32.933Z,98221.22
2023-05-06T23:31:38.113Z,98216.78
2023-05-06T23:33:44.112Z,98221.00
2023-05-06T23:35:49.430Z,98219.88
2023-05-06T23:37:54.975Z,98221.44
2023-05-06T23:40:03.974Z,98201.44
2023-05-06T23:42:12.145Z,98221.44
2023-05-06T23:44:17.747Z,98210.19
2023-05-06T23:46:26.209Z,98215.88
2023-05-06T23:48:34.833Z,98218.19
2023-05-06T23:50:44.682Z,98221.97
2023-05-06T23:52:50.034Z,98214.69
2023-05-06T23:54:55.644Z,98218.50
2023-05-06T23:57:01.562Z,98219.53
2023-05-06T23:59:09.761Z,98225.97
